Jackson Hole (JAC/KJAC)

Map

Information

Location
Jackson Hole, WY
Local Time
05:37 / 5:37 am
GMT Time
11:37 / 11:37 am
Gates
A4
No FAA reported delays
METAR KJAC 241115Z AUTO 00000KT 10SM CLR 01/01 A2993 RMK AO1
TAF KJAC 240527Z 2406/2506 21006KT P6SM SKC FM241600 20011KT P6SM SCT080 FM241800 21016G26KT P6SM SCT080 SCT110 FM250300 21010KT P6SM SCT100 AMD LTD TO CLD VIS AND WIND